createdAt,value
2017-07-24T06:04:51.204Z,7.55
2017-07-24T06:05:36.581Z,7.42
2017-07-24T06:06:36.580Z,7.11
2017-07-24T06:07:36.270Z,7.09
2017-07-24T06:08:36.566Z,6.87
2017-07-24T06:09:36.543Z,6.83
2017-07-24T06:10:36.540Z,6.79
2017-07-24T06:11:36.525Z,6.81
2017-07-24T06:12:36.520Z,6.9
2017-07-24T06:13:36.518Z,6.97
2017-07-24T06:14:36.500Z,7.01
2017-07-24T06:15:35.885Z,6.94
2017-07-24T06:16:36.495Z,6.97
2017-07-24T06:17:36.176Z,6.72
2017-07-24T06:18:36.463Z,6.68
2017-07-24T06:19:36.460Z,6.89
2017-07-24T06:20:36.435Z,6.93
2017-07-24T06:21:36.432Z,6.87
2017-07-24T06:22:36.430Z,6.89
2017-07-24T06:23:36.411Z,6.83
2017-07-24T06:24:36.396Z,6.83
2017-07-24T06:25:36.394Z,6.76
2017-07-24T06:26:36.373Z,6.55
2017-07-24T06:27:36.371Z,6.53
2017-07-24T06:28:36.360Z,6.58
2017-07-24T06:29:36.340Z,6.55
2017-07-24T06:30:36.341Z,6.4
2017-07-24T06:31:36.316Z,6.35
2017-07-24T06:32:36.312Z,6.35
2017-07-24T06:33:36.294Z,6.32
2017-07-24T06:34:35.990Z,6.27
2017-07-24T06:35:36.283Z,6.21
2017-07-24T06:36:36.267Z,6.27
2017-07-24T06:37:36.262Z,6.28
2017-07-24T06:38:36.248Z,6.39
2017-07-24T06:39:36.226Z,6.27
2017-07-24T06:40:35.928Z,6.3
2017-07-24T06:41:36.217Z,6.32
2017-07-24T06:42:35.906Z,6.36
2017-07-24T06:43:36.201Z,6.38
2017-07-24T06:44:36.187Z,6.42
2017-07-24T06:45:36.178Z,6.32
2017-07-24T06:46:36.183Z,6.19
2017-07-24T06:47:35.850Z,6.16
2017-07-24T06:48:36.148Z,6.11
2017-07-24T06:49:36.132Z,6.16
2017-07-24T06:50:36.126Z,6.24
2017-07-24T06:51:36.117Z,6.27
2017-07-24T06:52:36.107Z,6.14
2017-07-24T06:53:36.098Z,6.14
2017-07-24T06:54:36.075Z,6.2
2017-07-24T06:55:36.085Z,6.32
2017-07-24T06:56:36.063Z,6.35
2017-07-24T06:57:36.036Z,6.51
2017-07-24T06:58:36.042Z,6.55
2017-07-24T06:59:36.026Z,6.54
2017-07-24T07:00:36.004Z,6.6
2017-07-24T07:01:36.010Z,6.42
2017-07-24T07:02:35.999Z,6.2
2017-07-24T07:03:35.974Z,6.08
2017-07-24T07:04:35.969Z,5.93
2017-07-24T07:05:35.648Z,5.98
2017-07-24T07:06:35.948Z,5.84
2017-07-24T07:07:35.938Z,5.85
2017-07-24T07:08:35.924Z,5.95
2017-07-24T07:09:35.923Z,5.92
2017-07-24T07:10:35.903Z,6.02
2017-07-24T07:11:35.900Z,5.92
2017-07-24T07:12:35.573Z,6.03
2017-07-24T07:13:35.267Z,5.92
2017-07-24T07:14:35.859Z,5.93
2017-07-24T07:15:35.836Z,6.01
2017-07-24T07:16:35.831Z,6.01
2017-07-24T07:17:35.822Z,6.02
2017-07-24T07:18:35.819Z,6.2
2017-07-24T07:19:35.500Z,6.13
2017-07-24T07:20:35.788Z,6.05
2017-07-24T07:21:35.776Z,6.06
2017-07-24T07:22:35.767Z,5.98
2017-07-24T07:23:35.445Z,6.02
2017-07-24T07:24:35.748Z,6.06
2017-07-24T07:25:35.721Z,6.11
2017-07-24T07:26:35.717Z,6.27
2017-07-24T07:27:35.712Z,6.3
2017-07-24T07:28:35.704Z,6.38
2017-07-24T07:29:35.684Z,6.48
2017-07-24T07:30:35.673Z,6.6
2017-07-24T07:31:35.666Z,6.6
2017-07-24T07:32:35.652Z,6.61
2017-07-24T07:33:35.644Z,6.57
2017-07-24T07:34:35.628Z,6.53
2017-07-24T07:35:35.626Z,6.61
2017-07-24T07:36:35.604Z,6.72
2017-07-24T07:37:35.285Z,6.82
2017-07-24T07:38:35.588Z,6.83
2017-07-24T07:39:35.573Z,6.83
2017-07-24T07:40:35.567Z,6.54
2017-07-24T07:41:35.250Z,6.5
2017-07-24T07:42:35.549Z,6.36
2017-07-24T07:43:35.521Z,6.24
2017-07-24T07:44:35.516Z,6.3
2017-07-24T07:45:35.199Z,6.33
2017-07-24T07:46:35.198Z,6.36
2017-07-24T07:47:35.478Z,6.33
2017-07-24T07:48:35.178Z,6.32
2017-07-24T07:49:35.466Z,6.5
2017-07-24T07:50:35.450Z,6.55
2017-07-24T07:51:35.444Z,6.6
2017-07-24T07:52:35.433Z,6.71
2017-07-24T07:53:35.421Z,6.61
2017-07-24T07:54:35.412Z,6.54
2017-07-24T07:55:35.101Z,6.55
2017-07-24T07:56:35.401Z,6.3
2017-07-24T07:57:35.377Z,5.51
2017-07-24T07:58:35.379Z,5.02
2017-07-24T07:59:35.057Z,4.67
2017-07-24T08:00:35.347Z,4.35
2017-07-24T08:01:35.332Z,4.36
2017-07-24T08:02:35.321Z,4.38
2017-07-24T08:03:35.006Z,4.31
2017-07-24T08:04:35.303Z,4.35
2017-07-24T08:05:35.282Z,4.26
2017-07-24T08:06:34.968Z,4.14
2017-07-24T08:07:35.267Z,4.2
2017-07-24T08:08:35.250Z,4.29
2017-07-24T08:09:35.243Z,4.14
2017-07-24T08:10:35.215Z,4.25
2017-07-24T08:11:35.213Z,4.26
2017-07-24T08:12:35.206Z,4.16
2017-07-24T08:13:34.880Z,4.14
2017-07-24T08:14:35.168Z,4.21
2017-07-24T08:15:34.859Z,4.13
2017-07-24T08:16:34.843Z,4.08
2017-07-24T08:17:34.822Z,4.07
2017-07-24T08:18:35.129Z,4.06
2017-07-24T08:19:34.802Z,4.17
2017-07-24T08:20:35.083Z,4.21
2017-07-24T08:21:34.774Z,4.16
2017-07-24T08:22:34.754Z,4.02
2017-07-24T08:23:34.759Z,4.16
2017-07-24T08:24:34.732Z,4.21
2017-07-24T08:25:34.706Z,4.2
2017-07-24T08:26:34.990Z,4.13
2017-07-24T08:27:34.982Z,4.1
2017-07-24T08:28:34.972Z,4.21
2017-07-24T08:29:34.965Z,4.17
2017-07-24T08:30:34.643Z,4.13
2017-07-24T08:31:34.928Z,4.16
2017-07-24T08:32:34.919Z,4.18
2017-07-24T08:33:34.900Z,4.17
2017-07-24T08:34:34.884Z,4.2
2017-07-24T08:35:34.874Z,4.28
2017-07-24T08:36:34.557Z,4.18
2017-07-24T08:37:34.853Z,4.18
2017-07-24T08:38:34.827Z,4.29
2017-07-24T08:39:34.813Z,4.25
2017-07-24T08:40:34.801Z,4.16
2017-07-24T08:41:34.786Z,4.08
2017-07-24T08:42:34.785Z,4.1
2017-07-24T08:43:34.455Z,4
2017-07-24T08:44:34.746Z,3.68
2017-07-24T08:45:34.724Z,3.74
2017-07-24T08:46:34.416Z,3.64
2017-07-24T08:47:34.701Z,3.54
2017-07-24T08:48:34.684Z,3.56
2017-07-24T08:49:34.672Z,3.49
2017-07-24T08:50:34.669Z,3.33
2017-07-24T08:51:34.644Z,3.37
2017-07-24T08:52:34.635Z,3.35
2017-07-24T08:53:34.314Z,3.56
2017-07-24T08:54:34.308Z,3.42
2017-07-24T08:55:34.588Z,3.45
2017-07-24T08:56:34.579Z,3.42
2017-07-24T08:57:34.558Z,3.37
2017-07-24T08:58:34.240Z,3.41
2017-07-24T08:59:34.536Z,3.37
2017-07-24T09:00:34.211Z,3.42
2017-07-24T09:01:34.509Z,3.26
2017-07-24T09:02:34.502Z,3.35
2017-07-24T09:03:34.167Z,3.39
2017-07-24T09:04:34.160Z,3.46
2017-07-24T09:05:34.449Z,3.45
2017-07-24T09:06:34.126Z,3.35
2017-07-24T09:07:34.106Z,3.44
2017-07-24T09:08:34.102Z,3.44
2017-07-24T09:09:34.084Z,3.45
2017-07-24T09:10:34.366Z,3.45
2017-07-24T09:11:34.347Z,3.44
2017-07-24T09:12:34.027Z,3.41
2017-07-24T09:13:34.331Z,3.41
2017-07-24T09:14:34.003Z,3.54
2017-07-24T09:15:33.990Z,3.53
2017-07-24T09:16:34.283Z,3.52
2017-07-24T09:17:33.957Z,3.45
2017-07-24T09:18:33.944Z,3.53
2017-07-24T09:19:34.236Z,3.54
2017-07-24T09:20:33.916Z,3.64
2017-07-24T09:21:33.896Z,3.68
2017-07-24T09:22:33.581Z,3.57
2017-07-24T09:23:33.561Z,3.57
2017-07-24T09:24:33.542Z,3.53
2017-07-24T09:25:34.146Z,3.53
2017-07-24T09:26:33.834Z,3.5
2017-07-24T09:27:34.121Z,3.46
2017-07-24T09:28:34.091Z,3.49
2017-07-24T09:29:34.081Z,3.45
2017-07-24T09:30:33.769Z,3.45
2017-07-24T09:31:34.059Z,3.41
2017-07-24T09:32:34.045Z,3.52
2017-07-24T09:33:33.713Z,3.49
2017-07-24T09:34:33.402Z,3.52
2017-07-24T09:35:34.003Z,3.41
2017-07-24T09:36:33.983Z,3.54
2017-07-24T09:37:33.959Z,3.45
2017-07-24T09:38:33.646Z,3.54
2017-07-24T09:39:33.938Z,3.56
2017-07-24T09:40:33.912Z,3.53
2017-07-24T09:41:33.629Z,3.53
2017-07-24T09:42:33.890Z,3.56
2017-07-24T09:43:33.875Z,3.68
2017-07-24T09:44:33.866Z,3.67
2017-07-24T09:45:33.856Z,3.67
2017-07-24T09:46:33.828Z,3.62
2017-07-24T09:47:33.509Z,3.6
2017-07-24T09:48:33.800Z,3.62
2017-07-24T09:49:33.788Z,3.54
2017-07-24T09:50:33.770Z,3.63
2017-07-24T09:51:33.460Z,3.7
2017-07-24T09:52:33.763Z,3.71
2017-07-24T09:53:33.425Z,3.68
2017-07-24T09:54:33.418Z,3.59
2017-07-24T09:55:33.089Z,3.68
2017-07-24T09:56:33.380Z,3.67
2017-07-24T09:57:33.367Z,3.71
2017-07-24T09:58:33.352Z,3.82
2017-07-24T09:59:33.633Z,3.8
2017-07-24T10:00:33.320Z,3.82
2017-07-24T10:01:33.617Z,3.64
2017-07-24T10:02:33.297Z,3.64
2017-07-24T10:03:33.284Z,3.37
2017-07-24T10:04:33.563Z,3.41
2017-07-24T10:05:33.566Z,3.42
2017-07-24T10:06:33.542Z,3.39
2017-07-24T10:07:33.233Z,3.35
2017-07-24T10:08:33.514Z,3.34
2017-07-24T10:09:33.192Z,3.41
2017-07-24T10:10:32.879Z,3.37
2017-07-24T10:11:33.475Z,3.41
2017-07-24T10:12:33.461Z,3.31
2017-07-24T10:13:33.132Z,3.37
2017-07-24T10:14:33.427Z,3.39
2017-07-24T10:15:33.410Z,3.52
2017-07-24T10:16:33.090Z,3.56
2017-07-24T10:17:32.770Z,3.52
2017-07-24T10:18:33.374Z,3.54
2017-07-24T10:19:33.368Z,3.67
2017-07-24T10:20:33.034Z,3.54
2017-07-24T10:21:33.014Z,3.67
2017-07-24T10:22:33.015Z,3.62
2017-07-24T10:23:32.992Z,3.53
2017-07-24T10:24:32.981Z,3.6
2017-07-24T10:25:32.967Z,3.67
2017-07-24T10:26:32.651Z,3.7
2017-07-24T10:27:33.250Z,3.72
2017-07-24T10:28:33.231Z,3.7
2017-07-24T10:29:32.904Z,3.81
2017-07-24T10:30:32.897Z,3.82
2017-07-24T10:31:32.879Z,3.8
2017-07-24T10:32:33.167Z,3.78
2017-07-24T10:33:33.149Z,3.84
2017-07-24T10:34:33.134Z,3.72
2017-07-24T10:35:33.128Z,3.78
2017-07-24T10:36:32.807Z,3.81
2017-07-24T10:37:32.795Z,4.06
2017-07-24T10:38:33.076Z,3.99
2017-07-24T10:39:33.070Z,3.86
2017-07-24T10:40:33.061Z,3.84
2017-07-24T10:41:33.045Z,3.84
2017-07-24T10:42:33.035Z,3.84
2017-07-24T10:43:33.015Z,3.93
2017-07-24T10:44:33.011Z,3.95
2017-07-24T10:45:32.989Z,4.06
2017-07-24T10:46:32.972Z,3.93
2017-07-24T10:47:32.966Z,3.93
2017-07-24T10:48:32.956Z,3.96
2017-07-24T10:49:32.941Z,4.04
2017-07-24T10:50:32.925Z,4.1
2017-07-24T10:51:32.896Z,3.96
2017-07-24T10:52:32.893Z,3.96
2017-07-24T10:53:32.884Z,4.06
2017-07-24T10:54:32.558Z,3.96
2017-07-24T10:55:32.839Z,4.1
2017-07-24T10:56:32.863Z,3.98
2017-07-24T10:57:32.519Z,4.1
2017-07-24T10:58:32.494Z,4.17
2017-07-24T10:59:32.492Z,4.13
2017-07-24T11:00:32.787Z,4.06
2017-07-24T11:01:32.756Z,4.08
2017-07-24T11:02:32.752Z,4.11
2017-07-24T11:03:32.756Z,4.04
2017-07-24T11:04:32.728Z,4.16
2017-07-24T11:05:32.719Z,4.16
2017-07-24T11:06:32.692Z,4.18
2017-07-24T11:07:32.700Z,4.28
2017-07-24T11:08:32.660Z,4.18
2017-07-24T11:09:32.669Z,4.11
2017-07-24T11:10:32.651Z,4.17
2017-07-24T11:11:32.631Z,4.11
2017-07-24T11:12:32.615Z,3.96
2017-07-24T11:13:32.607Z,3.82
2017-07-24T11:14:32.587Z,3.99
2017-07-24T11:15:32.585Z,4.02
2017-07-24T11:16:32.565Z,4.02
2017-07-24T11:17:32.560Z,3.95
2017-07-24T11:18:32.540Z,3.98
2017-07-24T11:19:32.526Z,3.98
2017-07-24T11:20:32.498Z,3.96
2017-07-24T11:21:32.495Z,3.98
2017-07-24T11:22:32.494Z,4
2017-07-24T11:23:32.465Z,3.98
2017-07-24T11:24:32.463Z,3.9
2017-07-24T11:25:32.445Z,3.86
2017-07-24T11:26:32.427Z,3.88
2017-07-24T11:27:32.425Z,3.74
2017-07-24T11:28:32.405Z,3.75
2017-07-24T11:29:32.384Z,3.82
2017-07-24T11:30:32.369Z,3.75
2017-07-24T11:31:32.356Z,3.8
2017-07-24T11:32:32.350Z,3.88
2017-07-24T11:33:32.329Z,3.98
2017-07-24T11:34:32.325Z,4.04
2017-07-24T11:35:31.995Z,4.14
2017-07-24T11:36:31.993Z,4.11
2017-07-24T11:37:31.969Z,4.08
2017-07-24T11:38:32.262Z,4.08
2017-07-24T11:39:31.942Z,4.14
2017-07-24T11:40:31.926Z,4.07
2017-07-24T11:41:31.919Z,4.04
2017-07-24T11:42:32.214Z,3.8
2017-07-24T11:43:31.893Z,3.78
2017-07-24T11:44:32.182Z,3.81
2017-07-24T11:45:32.175Z,3.88
2017-07-24T11:46:31.846Z,3.88
2017-07-24T11:47:32.134Z,3.78
2017-07-24T11:48:32.133Z,3.68
2017-07-24T11:49:32.118Z,3.67
2017-07-24T11:50:32.099Z,3.7
2017-07-24T11:51:31.791Z,3.74
2017-07-24T11:52:32.080Z,3.7
2017-07-24T11:53:32.054Z,3.67
2017-07-24T11:54:32.053Z,3.81
2017-07-24T11:55:32.038Z,3.81
2017-07-24T11:56:32.019Z,3.68
2017-07-24T11:57:32.010Z,3.72
2017-07-24T11:58:31.994Z,3.72
2017-07-24T11:59:31.975Z,3.67
2017-07-24T12:00:31.970Z,3.71
2017-07-24T12:01:31.954Z,3.68
2017-07-24T12:02:31.933Z,3.67
2017-07-24T12:03:31.919Z,3.8
2017-07-24T12:04:31.921Z,3.8
2017-07-24T12:05:31.898Z,3.84
2017-07-24T12:06:31.888Z,3.82
2017-07-24T12:07:31.572Z,3.88
2017-07-24T12:08:31.864Z,3.81
2017-07-24T12:09:31.838Z,3.75
2017-07-24T12:10:31.829Z,3.7
2017-07-24T12:11:31.826Z,3.72
2017-07-24T12:12:31.808Z,3.86
2017-07-24T12:13:31.790Z,3.78
2017-07-24T12:14:31.774Z,3.84
2017-07-24T12:15:31.768Z,3.81
2017-07-24T12:16:31.751Z,3.86
2017-07-24T12:17:31.734Z,3.92
2017-07-24T12:18:31.723Z,3.9
2017-07-24T12:19:31.405Z,3.98
2017-07-24T12:20:31.693Z,4.06
2017-07-24T12:21:31.083Z,4.06
2017-07-24T12:22:31.685Z,3.9
2017-07-24T12:23:31.668Z,3.89
2017-07-24T12:24:31.655Z,3.98
2017-07-24T12:25:31.339Z,3.98
2017-07-24T12:26:31.616Z,4
2017-07-24T12:27:31.299Z,3.99
2017-07-24T12:28:31.589Z,3.96
2017-07-24T12:29:31.582Z,3.82
2017-07-24T12:30:31.563Z,3.95
2017-07-24T12:31:31.556Z,3.89
2017-07-24T12:32:31.550Z,3.88
2017-07-24T12:33:31.525Z,3.72
2017-07-24T12:34:31.528Z,3.63
2017-07-24T12:35:31.501Z,3.59
2017-07-24T12:36:31.487Z,3.63
2017-07-24T12:37:31.476Z,3.67
2017-07-24T12:38:31.158Z,3.56
2017-07-24T12:39:31.150Z,3.37
2017-07-24T12:40:31.437Z,3.26
2017-07-24T12:41:31.415Z,3.22
2017-07-24T12:42:31.404Z,3.23
2017-07-24T12:43:31.381Z,3.3
2017-07-24T12:44:31.376Z,3.26
2017-07-24T12:45:31.359Z,3.33
2017-07-24T12:46:31.357Z,3.44
2017-07-24T12:47:31.345Z,3.41
2017-07-24T12:48:31.323Z,3.42
2017-07-24T12:49:31.298Z,3.33
2017-07-24T12:50:31.292Z,3.26
2017-07-24T12:51:31.280Z,3.26
2017-07-24T12:52:30.669Z,3.28
2017-07-24T12:53:31.257Z,3.26
2017-07-24T12:54:30.935Z,3.28
2017-07-24T12:55:31.222Z,3.23
2017-07-24T12:56:31.213Z,3.17
2017-07-24T12:57:31.195Z,3.19
2017-07-24T12:58:31.200Z,3.22
2017-07-24T12:59:31.163Z,3.16
2017-07-24T13:00:31.161Z,3.13
2017-07-24T13:01:31.147Z,2.95
2017-07-24T13:02:31.122Z,2.99
2017-07-24T13:03:31.115Z,3.02
2017-07-24T13:04:30.793Z,2.94
2017-07-24T13:05:31.082Z,2.98
2017-07-24T13:06:30.773Z,2.97
2017-07-24T13:07:31.057Z,2.95
2017-07-24T13:08:31.051Z,2.97
2017-07-24T13:09:31.043Z,3.08
2017-07-24T13:10:31.007Z,3.13
2017-07-24T13:11:30.997Z,3.12
2017-07-24T13:12:30.985Z,2.97
2017-07-24T13:13:30.656Z,2.98
2017-07-24T13:14:30.943Z,3.07
2017-07-24T13:15:30.938Z,3.1
2017-07-24T13:16:30.926Z,3.22
2017-07-24T13:17:30.917Z,3.25
2017-07-24T13:18:30.597Z,3.2
2017-07-24T13:19:30.877Z,3.2
2017-07-24T13:20:30.870Z,3.08
2017-07-24T13:21:30.245Z,2.99
2017-07-24T13:22:30.527Z,3.1
2017-07-24T13:23:30.520Z,3.1
2017-07-24T13:24:30.504Z,3.15
2017-07-24T13:25:30.787Z,3.16
2017-07-24T13:26:30.788Z,3.07
2017-07-24T13:27:30.758Z,3.17
2017-07-24T13:28:30.451Z,3.22
2017-07-24T13:29:30.735Z,3.08
2017-07-24T13:30:30.710Z,3.01
2017-07-24T13:31:30.700Z,3.1
2017-07-24T13:32:30.696Z,3.19
2017-07-24T13:33:30.680Z,3.1
2017-07-24T13:34:30.667Z,3.15
2017-07-24T13:35:30.357Z,3.04
2017-07-24T13:36:30.621Z,3.16
2017-07-24T13:37:30.614Z,3.23
2017-07-24T13:38:30.601Z,3.28
2017-07-24T13:39:30.589Z,3.28
2017-07-24T13:40:30.573Z,3.2
2017-07-24T13:41:30.556Z,3.23
2017-07-24T13:42:30.537Z,3.31
2017-07-24T13:43:30.527Z,3.26
2017-07-24T13:44:30.514Z,3.33
2017-07-24T13:45:30.499Z,3.28
2017-07-24T13:46:30.175Z,3.34
2017-07-24T13:47:30.475Z,3.34
2017-07-24T13:48:30.467Z,3.3
2017-07-24T13:49:30.444Z,3.34
2017-07-24T13:50:30.420Z,3.39
2017-07-24T13:51:30.411Z,3.3
2017-07-24T13:52:30.393Z,3.25
2017-07-24T13:53:30.077Z,3.37
2017-07-24T13:54:30.371Z,3.39
2017-07-24T13:55:30.059Z,3.41
2017-07-24T13:56:30.353Z,3.22
2017-07-24T13:57:30.329Z,3.23
2017-07-24T13:58:30.307Z,3.34
2017-07-24T13:59:30.296Z,3.35
2017-07-24T14:00:30.293Z,3.26
2017-07-24T14:01:30.262Z,3.19
2017-07-24T14:02:30.242Z,3.26
2017-07-24T14:03:29.933Z,3.33
2017-07-24T14:04:30.237Z,3.26
2017-07-24T14:05:29.916Z,3.3
2017-07-24T14:06:30.203Z,3.31
2017-07-24T14:07:30.173Z,3.23
2017-07-24T14:08:30.157Z,3.33
2017-07-24T14:09:29.851Z,3.23
2017-07-24T14:10:30.130Z,3.42
2017-07-24T14:11:30.122Z,3.39
2017-07-24T14:12:30.109Z,3.44
2017-07-24T14:13:29.797Z,3.45
2017-07-24T14:14:29.472Z,3.41
2017-07-24T14:15:30.062Z,3.33
2017-07-24T14:16:30.042Z,3.25
2017-07-24T14:17:30.033Z,3.41
2017-07-24T14:18:30.023Z,3.45
2017-07-24T14:19:30.016Z,3.45
2017-07-24T14:20:29.983Z,3.49
2017-07-24T14:21:29.977Z,3.59
2017-07-24T14:22:29.960Z,3.57
2017-07-24T14:23:29.946Z,3.23
2017-07-24T14:24:29.923Z,3.05
2017-07-24T14:25:29.917Z,3.1
2017-07-24T14:26:29.903Z,3.12
2017-07-24T14:27:29.885Z,3.01
2017-07-24T14:28:29.874Z,2.89
2017-07-24T14:29:29.867Z,2.92
2017-07-24T14:30:29.849Z,2.8
2017-07-24T14:31:29.834Z,2.79
2017-07-24T14:32:29.819Z,2.81
2017-07-24T14:33:29.789Z,2.68
2017-07-24T14:34:29.772Z,2.61
2017-07-24T14:35:29.768Z,2.56
2017-07-24T14:36:29.747Z,2.69
2017-07-24T14:37:29.742Z,2.62
2017-07-24T14:38:29.719Z,2.45
2017-07-24T14:39:29.710Z,2.56
2017-07-24T14:40:29.697Z,2.48
2017-07-24T14:41:29.687Z,2.53
2017-07-24T14:42:29.669Z,2.53
2017-07-24T14:43:29.643Z,2.59
2017-07-24T14:44:29.628Z,2.55
2017-07-24T14:45:29.620Z,2.5
2017-07-24T14:46:29.293Z,2.51
2017-07-24T14:47:29.601Z,2.43
2017-07-24T14:48:29.571Z,2.51
2017-07-24T14:49:29.249Z,2.45
2017-07-24T14:50:29.546Z,2.51
2017-07-24T14:51:29.521Z,2.48
2017-07-24T14:52:29.207Z,2.45
2017-07-24T14:53:29.516Z,2.45
2017-07-24T14:54:29.482Z,2.5
2017-07-24T14:55:29.158Z,2.53
2017-07-24T14:56:29.447Z,2.68
2017-07-24T14:57:29.134Z,2.51
2017-07-24T14:58:29.412Z,2.29
2017-07-24T14:59:29.405Z,2.29
2017-07-24T15:00:29.384Z,2.2
2017-07-24T15:01:29.368Z,2.29
2017-07-24T15:02:29.350Z,2.32
2017-07-24T15:03:29.038Z,2.29
2017-07-24T15:04:29.313Z,2.38
2017-07-24T15:05:29.302Z,2.15
2017-07-24T15:06:29.289Z,2.3
2017-07-24T15:07:28.982Z,2.22
2017-07-24T15:08:28.958Z,2.26
2017-07-24T15:09:29.239Z,2.19
2017-07-24T15:10:29.234Z,2.19
2017-07-24T15:11:29.210Z,2.29
2017-07-24T15:12:28.901Z,2.44
2017-07-24T15:13:28.877Z,2.19
2017-07-24T15:14:28.863Z,2.14
2017-07-24T15:15:28.845Z,2.04
2017-07-24T15:16:29.127Z,1.95
2017-07-24T15:17:29.123Z,1.9
2017-07-24T15:18:29.096Z,1.9
2017-07-24T15:19:29.078Z,1.95
2017-07-24T15:20:29.085Z,1.93
2017-07-24T15:21:29.068Z,1.93
2017-07-24T15:22:29.036Z,2.01
2017-07-24T15:23:29.025Z,1.98
2017-07-24T15:24:28.998Z,1.95
2017-07-24T15:25:28.991Z,1.98
2017-07-24T15:26:28.673Z,1.98
2017-07-24T15:27:28.951Z,2.04
2017-07-24T15:28:28.947Z,1.82
2017-07-24T15:29:28.941Z,1.6
2017-07-24T15:30:28.920Z,1.68
2017-07-24T15:31:28.902Z,1.67
2017-07-24T15:32:28.589Z,1.68
2017-07-24T15:33:28.554Z,1.71
2017-07-24T15:34:28.851Z,1.81
2017-07-24T15:35:28.830Z,1.72
2017-07-24T15:36:28.810Z,1.72
2017-07-24T15:37:28.808Z,1.85
2017-07-24T15:38:28.776Z,1.88
2017-07-24T15:39:28.773Z,2.02
2017-07-24T15:40:28.742Z,1.98
2017-07-24T15:41:28.729Z,1.82
2017-07-24T15:42:28.721Z,1.83
2017-07-24T15:43:28.707Z,1.82
2017-07-24T15:44:28.701Z,1.83
2017-07-24T15:45:28.678Z,1.83
2017-07-24T15:46:28.650Z,1.82
2017-07-24T15:47:28.649Z,1.82
2017-07-24T15:48:28.613Z,1.86
2017-07-24T15:49:28.619Z,1.88
2017-07-24T15:50:28.584Z,1.77
2017-07-24T15:51:28.573Z,1.74
2017-07-24T15:52:28.565Z,1.79
2017-07-24T15:53:28.538Z,1.88
2017-07-24T15:54:28.528Z,1.92
2017-07-24T15:55:28.513Z,1.82
2017-07-24T15:56:28.500Z,1.83
2017-07-24T15:57:28.488Z,2
2017-07-24T15:58:28.462Z,2.02
2017-07-24T15:59:28.456Z,2.14
2017-07-24T16:00:28.437Z,2.15
2017-07-24T16:01:28.418Z,2.08
2017-07-24T16:02:28.102Z,1.85
2017-07-24T16:03:28.390Z,1.85
2017-07-24T16:04:28.365Z,1.95
2017-07-24T16:05:28.367Z,1.85
2017-07-24T16:06:28.040Z,1.82
2017-07-24T16:07:28.347Z,1.83
2017-07-24T16:08:28.520Z,1.83
2017-07-24T16:09:41.927Z,1.81
2017-07-24T16:10:28.278Z,1.93
2017-07-24T16:11:28.260Z,1.83
2017-07-24T16:12:27.642Z,1.85
2017-07-24T16:13:28.235Z,1.81
2017-07-24T16:14:27.915Z,1.81
2017-07-24T16:15:28.197Z,1.79
2017-07-24T16:16:28.199Z,1.82
2017-07-24T16:17:27.896Z,1.82
2017-07-24T16:18:27.851Z,1.85
2017-07-24T16:19:28.156Z,1.86
2017-07-24T16:20:28.119Z,1.98
2017-07-24T16:21:27.809Z,1.89
2017-07-24T16:22:28.099Z,1.81
2017-07-24T16:23:27.762Z,1.89
2017-07-24T16:24:28.065Z,1.81
2017-07-24T16:25:28.041Z,1.7
2017-07-24T16:26:28.017Z,1.67
2017-07-24T16:27:28.018Z,1.7
2017-07-24T16:28:27.686Z,1.74
2017-07-24T16:29:27.676Z,1.61
2017-07-24T16:30:27.961Z,1.65
2017-07-24T16:31:27.947Z,1.79
2017-07-24T16:32:27.953Z,1.95
2017-07-24T16:33:27.907Z,1.82
2017-07-24T16:34:27.895Z,1.71
2017-07-24T16:35:27.877Z,1.75
2017-07-24T16:36:27.871Z,1.77
2017-07-24T16:37:28.054Z,1.54
2017-07-24T16:38:27.832Z,1.67
2017-07-24T16:39:27.505Z,1.86
2017-07-24T16:40:27.803Z,1.72
2017-07-24T16:41:27.790Z,1.74
2017-07-24T16:42:27.980Z,1.71
2017-07-24T16:43:41.394Z,1.71
2017-07-24T16:44:27.728Z,1.74
2017-07-24T16:45:27.735Z,1.75
2017-07-24T16:46:27.709Z,1.71
2017-07-24T16:47:27.686Z,1.82
2017-07-24T16:48:27.685Z,1.63
2017-07-24T16:49:27.661Z,1.75
2017-07-24T16:50:27.637Z,1.68
2017-07-24T16:51:27.626Z,1.61
2017-07-24T16:52:27.604Z,1.75
2017-07-24T16:53:27.623Z,1.7
2017-07-24T16:54:27.581Z,1.7
2017-07-24T16:55:27.566Z,1.81
2017-07-24T16:56:27.552Z,1.83
2017-07-24T16:57:27.526Z,1.82
2017-07-24T16:58:27.514Z,1.82
2017-07-24T16:59:27.510Z,1.74
2017-07-24T17:00:27.494Z,1.81
2017-07-24T17:01:27.472Z,1.67
2017-07-24T17:02:27.164Z,1.68
2017-07-24T17:03:27.447Z,1.75
2017-07-24T17:04:27.415Z,1.81
2017-07-24T17:05:27.406Z,1.74
2017-07-24T17:06:27.409Z,1.68
2017-07-24T17:07:27.379Z,1.67
2017-07-24T17:08:27.352Z,1.67
2017-07-24T17:09:27.350Z,1.7
2017-07-24T17:10:27.349Z,1.71
2017-07-24T17:11:27.320Z,1.64
2017-07-24T17:12:27.305Z,1.65
2017-07-24T17:13:27.284Z,1.64
2017-07-24T17:14:26.964Z,1.7
2017-07-24T17:15:27.249Z,1.7
2017-07-24T17:16:27.436Z,1.67
2017-07-24T17:17:27.105Z,1.77
2017-07-24T17:18:27.204Z,1.7
2017-07-24T17:19:41.484Z,1.65
2017-07-24T17:20:27.183Z,1.64
2017-07-24T17:21:27.152Z,1.79
2017-07-24T17:22:27.147Z,1.72
2017-07-24T17:23:27.120Z,1.74
2017-07-24T17:24:26.805Z,1.85
2017-07-24T17:25:26.791Z,1.83
2017-07-24T17:26:26.774Z,1.83
2017-07-24T17:27:27.063Z,1.85
2017-07-24T17:28:27.060Z,1.9
2017-07-24T17:29:27.025Z,1.92
2017-07-24T17:30:26.736Z,1.92
2017-07-24T17:31:26.998Z,1.88
2017-07-24T17:32:26.677Z,1.83
2017-07-24T17:33:26.975Z,1.92
2017-07-24T17:34:26.646Z,1.93
2017-07-24T17:35:26.323Z,1.92
2017-07-24T17:36:26.627Z,1.93
2017-07-24T17:37:26.909Z,1.88
2017-07-24T17:38:26.276Z,1.98
2017-07-24T17:39:26.885Z,1.9
2017-07-24T17:40:26.869Z,2.01
2017-07-24T17:41:26.837Z,2.01
2017-07-24T17:42:26.832Z,2
2017-07-24T17:43:26.806Z,2.14
2017-07-24T17:44:26.797Z,2.18
2017-07-24T17:45:41.387Z,2.07
2017-07-24T17:47:20.922Z,2
2017-07-24T17:47:30.732Z,2.07
2017-07-24T17:48:30.709Z,2
2017-07-24T17:49:30.706Z,1.9
2017-07-24T17:50:30.694Z,1.85
2017-07-24T17:51:30.677Z,1.93
2017-07-24T17:52:30.669Z,1.9
2017-07-24T17:53:30.814Z,1.95
2017-07-24T17:54:30.628Z,1.9
2017-07-24T17:55:30.618Z,1.88
2017-07-24T17:56:30.596Z,1.88
2017-07-24T17:57:30.572Z,1.93
2017-07-24T17:58:30.569Z,1.89
2017-07-24T17:59:30.540Z,1.93
2017-07-24T18:00:30.538Z,2.01
2017-07-24T18:01:30.516Z,2.02
2017-07-24T18:02:30.509Z,2
2017-07-24T18:03:30.487Z,1.98
2017-07-24T18:04:30.477Z,1.95
2017-07-24T18:05:30.164Z,1.92
2017-07-24T18:06:30.153Z,2.01
2017-07-24T18:07:30.424Z,1.9
2017-07-24T18:08:30.628Z,2.02
2017-07-24T18:09:30.087Z,1.88
2017-07-24T18:10:30.376Z,1.75
2017-07-24T18:11:30.359Z,1.64
2017-07-24T18:12:30.554Z,1.68
2017-07-24T18:13:30.331Z,1.75
2017-07-24T18:14:43.922Z,1.57
2017-07-24T18:15:30.330Z,1.49
2017-07-24T18:16:30.302Z,1.49
2017-07-24T18:17:29.974Z,1.46
2017-07-24T18:18:30.465Z,1.5
2017-07-24T18:19:29.943Z,1.47
2017-07-24T18:20:30.224Z,1.38
2017-07-24T18:21:30.210Z,1.39
2017-07-24T18:22:30.205Z,1.36
2017-07-24T18:23:30.189Z,1.34
2017-07-24T18:24:30.176Z,1.35
2017-07-24T18:25:30.151Z,1.31
2017-07-24T18:26:30.130Z,1.25
2017-07-24T18:27:29.809Z,1.34
2017-07-24T18:28:30.097Z,1.24
2017-07-24T18:29:30.103Z,1.25
2017-07-24T18:30:30.073Z,1.26
2017-07-24T18:31:30.066Z,1.28
2017-07-24T18:32:30.055Z,1.26
2017-07-24T18:33:30.030Z,1.26
2017-07-24T18:34:30.006Z,1.29
2017-07-24T18:35:29.987Z,1.25
2017-07-24T18:36:29.980Z,1.28
2017-07-24T18:37:29.963Z,1.25
2017-07-24T18:38:29.951Z,1.17
2017-07-24T18:39:29.926Z,1.24
2017-07-24T18:40:29.616Z,1.2
2017-07-24T18:41:29.900Z,1.28
2017-07-24T18:42:29.876Z,1.18
2017-07-24T18:43:29.765Z,1.2
2017-07-24T18:44:29.856Z,1.28
2017-07-24T18:45:29.836Z,1.35
2017-07-24T18:46:29.816Z,1.21
2017-07-24T18:47:30.019Z,1.24
2017-07-24T18:48:43.425Z,1.21
2017-07-24T18:49:29.789Z,1.2
2017-07-24T18:50:29.762Z,1.24
2017-07-24T18:51:29.736Z,1.08
2017-07-24T18:52:29.923Z,1.26
2017-07-24T18:53:29.705Z,1.14
2017-07-24T18:54:29.378Z,1.26
2017-07-24T18:55:29.362Z,1.2
2017-07-24T18:56:29.653Z,1.21
2017-07-24T18:57:29.628Z,1.24
2017-07-24T18:58:29.329Z,1.17
2017-07-24T18:59:29.604Z,1.18
2017-07-24T19:00:29.585Z,1.28
2017-07-24T19:01:29.563Z,1.18
2017-07-24T19:02:29.556Z,1.2
2017-07-24T19:03:29.535Z,1.25
2017-07-24T19:04:29.530Z,1.31
2017-07-24T19:05:29.202Z,1.28
2017-07-24T19:06:29.186Z,1.25
2017-07-24T19:07:29.485Z,1.18
2017-07-24T19:08:29.460Z,1.24
2017-07-24T19:09:29.443Z,1.14
2017-07-24T19:10:29.422Z,1.2
2017-07-24T19:11:29.099Z,1.17
2017-07-24T19:12:29.391Z,1.18
2017-07-24T19:13:29.381Z,1.1
2017-07-24T19:14:29.349Z,1.11
2017-07-24T19:15:29.339Z,1.11
2017-07-24T19:16:29.022Z,1.21
2017-07-24T19:17:29.310Z,1.17
2017-07-24T19:18:29.294Z,1.26
2017-07-24T19:19:29.296Z,1.34
2017-07-24T19:20:29.265Z,1.17
2017-07-24T19:21:42.623Z,1.26
2017-07-24T19:22:29.219Z,1.24
2017-07-24T19:23:29.210Z,1.17
2017-07-24T19:24:28.897Z,1.29
2017-07-24T19:25:29.387Z,1.18
2017-07-24T19:26:28.867Z,1.18